Time;durP1;ratioP1;P1;durP2;ratioP2;P2;SDS_P1;SDS_P2;PMS_P1;PMS_P2;Temp;Humidity;BMP_temperature;BMP_pressure;BME280_temperature;BME280_humidity;BME280_pressure;Samples;Min_cycle;Max_cycle;Signal;HPM_P1;HPM_P2
2020/12/16 00:00:42;;;;;;;15.38;8.98;;;;;;;9.49;100.00;99289.19;5034192;28;20280;-67
2020/12/16 00:03:08;;;;;;;15.45;9.52;;;;;;;9.62;100.00;99289.34;5034103;28;20284;-67
2020/12/16 00:05:35;;;;;;;13.25;8.52;;;;;;;9.48;100.00;99279.41;5034024;28;20327;-67
2020/12/16 00:08:01;;;;;;;16.83;8.82;;;;;;;9.51;100.00;99286.44;5033824;28;20297;-67
2020/12/16 00:10:28;;;;;;;12.13;6.93;;;;;;;9.75;100.00;99290.34;5033440;28;20227;-67
2020/12/16 00:12:54;;;;;;;11.43;7.35;;;;;;;9.77;100.00;99291.13;5033753;28;20228;-67
2020/12/16 00:15:20;;;;;;;15.38;8.02;;;;;;;9.69;100.00;99292.53;5034056;28;20268;-68
2020/12/16 00:17:46;;;;;;;11.13;7.20;;;;;;;9.63;100.00;99288.38;5034445;28;20311;-67
2020/12/16 00:20:13;;;;;;;13.55;8.52;;;;;;;9.69;100.00;99295.22;5033802;28;20231;-67
2020/12/16 00:22:40;;;;;;;14.23;7.15;;;;;;;9.77;100.00;99293.81;5033917;28;20196;-68
2020/12/16 00:25:08;;;;;;;12.05;7.55;;;;;;;9.80;100.00;99304.38;5034179;28;20307;-65
2020/12/16 00:27:35;;;;;;;10.75;6.93;;;;;;;9.73;100.00;99310.22;5033985;28;20316;-68
2020/12/16 00:30:01;;;;;;;11.43;6.18;;;;;;;9.68;100.00;99312.28;5033754;28;20315;-68
2020/12/16 00:32:27;;;;;;;9.98;6.35;;;;;;;9.76;100.00;99315.41;5034083;28;20203;-68
2020/12/16 00:34:54;;;;;;;12.57;6.93;;;;;;;9.54;100.00;99313.13;5033468;28;20294;-67
2020/12/16 00:37:20;;;;;;;10.77;6.75;;;;;;;9.60;100.00;99310.06;5033739;28;20291;-67
2020/12/16 00:39:48;;;;;;;11.00;6.57;;;;;;;9.79;100.00;99302.66;5033735;28;20696;-67
2020/12/16 00:42:14;;;;;;;14.32;9.15;;;;;;;9.52;100.00;99297.09;5033725;28;20256;-67
2020/12/16 00:44:40;;;;;;;17.35;9.85;;;;;;;9.44;100.00;99298.50;5033686;28;20375;-67
2020/12/16 00:47:06;;;;;;;26.60;14.30;;;;;;;9.29;100.00;99301.09;5033441;28;20309;-67
2020/12/16 00:49:33;;;;;;;29.15;14.50;;;;;;;9.28;100.00;99296.69;5033583;28;20227;-67
2020/12/16 00:51:59;;;;;;;32.15;15.93;;;;;;;9.22;100.00;99294.34;5033501;28;20206;-67
2020/12/16 00:54:25;;;;;;;26.30;14.65;;;;;;;9.15;100.00;99296.53;5033435;28;20213;-67
2020/12/16 00:56:52;;;;;;;29.42;17.05;;;;;;;9.07;100.00;99298.78;5033501;28;20206;-67
2020/12/16 00:59:18;;;;;;;26.92;14.45;;;;;;;9.11;100.00;99304.84;5033104;28;20314;-68
2020/12/16 01:01:44;;;;;;;26.75;15.10;;;;;;;9.10;100.00;99303.13;5033318;28;20549;-67
2020/12/16 01:04:10;;;;;;;23.80;14.68;;;;;;;9.31;100.00;99311.75;5042581;28;20578;-67
2020/12/16 01:06:37;;;;;;;30.25;15.52;;;;;;;9.32;100.00;99308.13;5052982;28;20316;-67
2020/12/16 01:09:05;;;;;;;26.48;14.93;;;;;;;9.36;100.00;99315.94;5039687;28;20593;-67
2020/12/16 01:11:34;;;;;;;23.63;12.88;;;;;;;9.40;100.00;99325.53;5033455;28;20219;-67
2020/12/16 01:14:02;;;;;;;19.80;11.93;;;;;;;9.52;100.00;99323.97;5033475;28;20298;-67
2020/12/16 01:16:34;;;;;;;18.30;12.25;;;;;;;9.57;100.00;99323.72;5032581;28;20318;-66
2020/12/16 01:19:00;;;;;;;16.65;10.02;;;;;;;9.61;100.00;99319.88;5033072;28;20291;-67
2020/12/16 01:21:26;;;;;;;19.63;11.55;;;;;;;9.52;100.00;99323.97;5031904;28;20207;-67
2020/12/16 01:23:52;;;;;;;18.50;11.23;;;;;;;9.36;100.00;99325.78;5032270;28;20207;-67
2020/12/16 01:26:18;;;;;;;16.15;11.18;;;;;;;9.37;100.00;99331.09;5032896;28;20696;-67
2020/12/16 01:28:45;;;;;;;17.85;11.50;;;;;;;9.35;100.00;99338.38;5033039;28;20281;-67
2020/12/16 01:31:12;;;;;;;15.45;9.70;;;;;;;9.31;100.00;99336.81;5032542;28;20208;-67
2020/12/16 01:33:38;;;;;;;17.23;11.30;;;;;;;9.28;100.00;99349.56;5032767;28;20705;-67
2020/12/16 01:36:04;;;;;;;17.58;11.60;;;;;;;9.24;100.00;99358.75;5032514;28;20290;-66
2020/12/16 01:38:30;;;;;;;19.60;11.73;;;;;;;9.19;100.00;99356.31;5032161;28;20188;-67
2020/12/16 01:41:03;;;;;;;21.70;12.48;;;;;;;9.15;100.00;99360.13;5032745;28;20210;-67
2020/12/16 01:43:35;;;;;;;21.52;12.02;;;;;;;9.15;100.00;99362.81;5032524;28;20269;-67
2020/12/16 01:46:01;;;;;;;21.40;11.25;;;;;;;9.20;100.00;99363.41;5032323;28;20636;-67
2020/12/16 01:48:28;;;;;;;24.02;11.88;;;;;;;9.18;100.00;99354.59;5032557;28;20202;-67
2020/12/16 01:50:54;;;;;;;20.10;11.73;;;;;;;9.07;100.00;99359.72;5031994;28;20195;-66
2020/12/16 01:53:21;;;;;;;22.50;10.95;;;;;;;9.08;100.00;99364.09;5032506;28;20200;-67
2020/12/16 01:55:48;;;;;;;22.95;12.70;;;;;;;9.10;100.00;99357.69;5032359;28;20234;-67
2020/12/16 01:58:19;;;;;;;21.15;11.13;;;;;;;9.07;100.00;99363.25;5033249;28;20287;-66
2020/12/16 02:00:46;;;;;;;18.98;10.90;;;;;;;9.07;100.00;99365.06;5032190;28;20188;-67
2020/12/16 02:03:18;;;;;;;21.65;11.82;;;;;;;9.00;100.00;99360.97;5031920;28;20197;-66
2020/12/16 02:05:48;;;;;;;17.88;10.02;;;;;;;9.07;100.00;99362.41;5031917;28;20258;-67
2020/12/16 02:08:16;;;;;;;18.25;9.60;;;;;;;9.10;100.00;99364.91;5032178;28;20234;-67
2020/12/16 02:10:43;;;;;;;15.88;10.00;;;;;;;9.23;100.00;99351.66;5031767;28;20199;-67
2020/12/16 02:13:09;;;;;;;20.08;10.35;;;;;;;9.28;100.00;99355.78;5032094;28;20244;-67
2020/12/16 02:15:35;;;;;;;14.48;9.57;;;;;;;9.28;100.00;99361.16;5032065;28;20206;-67
2020/12/16 02:18:01;;;;;;;14.90;8.90;;;;;;;9.36;100.00;99356.25;5031821;28;20218;-67
2020/12/16 02:20:28;;;;;;;17.70;10.00;;;;;;;9.40;100.00;99357.78;5031719;28;20249;-67
2020/12/16 02:22:55;;;;;;;14.90;9.95;;;;;;;9.45;100.00;99367.41;5031872;28;20231;-67
2020/12/16 02:25:22;;;;;;;17.08;9.23;;;;;;;9.52;100.00;99358.91;5032174;28;20617;-67
2020/12/16 02:27:48;;;;;;;14.80;8.82;;;;;;;9.58;100.00;99355.00;5031864;28;20279;-67
2020/12/16 02:30:15;;;;;;;12.50;8.30;;;;;;;9.45;100.00;99356.66;5031607;28;20211;-67
2020/12/16 02:32:42;;;;;;;14.18;8.13;;;;;;;9.42;100.00;99357.69;5041512;28;20325;-67
2020/12/16 02:35:08;;;;;;;12.70;8.45;;;;;;;9.43;100.00;99354.06;5052063;28;20188;-67
2020/12/16 02:37:35;;;;;;;14.13;8.25;;;;;;;9.37;100.00;99354.41;5051774;28;20203;-67
2020/12/16 02:40:01;;;;;;;11.77;6.90;;;;;;;9.36;100.00;99348.19;5051675;28;20283;-67
2020/12/16 02:42:30;;;;;;;10.43;7.10;;;;;;;9.17;100.00;99347.47;5048252;28;20211;-67
2020/12/16 02:44:57;;;;;;;13.10;7.70;;;;;;;9.13;100.00;99345.91;5031740;28;20639;-67
2020/12/16 02:47:24;;;;;;;11.80;7.80;;;;;;;9.12;100.00;99350.44;5031348;28;20289;-67
2020/12/16 02:49:50;;;;;;;16.02;8.98;;;;;;;9.13;100.00;99337.84;5031961;28;20188;-67
2020/12/16 02:52:17;;;;;;;12.50;7.90;;;;;;;9.03;100.00;99337.50;5031404;28;20300;-67
2020/12/16 02:54:43;;;;;;;16.15;8.45;;;;;;;9.06;100.00;99334.66;5031182;28;20211;-67
2020/12/16 02:57:09;;;;;;;12.90;7.68;;;;;;;9.19;100.00;99330.31;5031422;28;20294;-67
2020/12/16 02:59:36;;;;;;;11.70;8.45;;;;;;;9.23;100.00;99339.06;5031332;28;20594;-67
2020/12/16 03:02:02;;;;;;;13.30;8.18;;;;;;;9.25;100.00;99330.91;5031547;28;20235;-68
2020/12/16 03:04:29;;;;;;;13.63;8.20;;;;;;;9.32;100.00;99335.88;5031397;28;20266;-66
2020/12/16 03:06:56;;;;;;;11.10;7.20;;;;;;;9.35;100.00;99334.81;5031516;28;20380;-67
2020/12/16 03:09:24;;;;;;;10.38;6.82;;;;;;;9.44;100.00;99328.91;5031312;28;20324;-67
2020/12/16 03:11:51;;;;;;;11.50;8.55;;;;;;;9.55;100.00;99331.00;5031568;28;20243;-66
2020/12/16 03:14:17;;;;;;;7.63;5.78;;;;;;;9.48;100.00;99340.38;5031513;28;20633;-67
2020/12/16 03:16:44;;;;;;;9.20;6.10;;;;;;;9.55;100.00;99339.91;5031677;28;20645;-67
2020/12/16 03:19:11;;;;;;;8.52;6.20;;;;;;;9.86;100.00;99342.59;5031096;28;20236;-67
2020/12/16 03:21:37;;;;;;;8.95;6.70;;;;;;;9.86;100.00;99348.00;5030964;28;20570;-67
2020/12/16 03:24:03;;;;;;;7.75;5.68;;;;;;;9.78;100.00;99343.94;5031508;28;20638;-67
2020/12/16 03:26:30;;;;;;;10.38;5.85;;;;;;;9.71;100.00;99336.34;5031102;28;20227;-67
2020/12/16 03:28:56;;;;;;;9.95;6.15;;;;;;;9.64;100.00;99330.44;5031774;28;20287;-67
2020/12/16 03:31:22;;;;;;;8.00;5.90;;;;;;;9.66;100.00;99330.38;5031716;28;20245;-67
2020/12/16 03:33:49;;;;;;;9.50;6.60;;;;;;;9.61;100.00;99325.25;5031542;28;20291;-66
2020/12/16 03:36:17;;;;;;;8.55;6.78;;;;;;;9.70;100.00;99324.72;5031342;28;20284;-66
2020/12/16 03:38:45;;;;;;;8.38;6.30;;;;;;;9.71;100.00;99329.13;5031237;28;20547;-67
2020/12/16 03:41:13;;;;;;;8.77;6.40;;;;;;;9.76;100.00;99329.72;5031163;28;20236;-67
2020/12/16 03:43:39;;;;;;;7.80;5.95;;;;;;;9.81;100.00;99330.34;5030917;28;20193;-67
2020/12/16 03:46:09;;;;;;;11.45;7.00;;;;;;;9.76;100.00;99335.09;5032377;28;20278;-67
2020/12/16 03:48:35;;;;;;;9.85;6.68;;;;;;;9.74;100.00;99341.53;5034354;28;20205;-66
2020/12/16 03:51:04;;;;;;;9.43;6.40;;;;;;;9.77;100.00;99342.22;5034663;28;20190;-66
2020/12/16 03:53:31;;;;;;;9.13;5.95;;;;;;;9.79;100.00;99351.06;5034446;28;20280;-67
2020/12/16 03:55:58;;;;;;;7.13;5.53;;;;;;;9.78;100.00;99353.84;5034550;28;20210;-66
2020/12/16 03:58:24;;;;;;;7.40;5.60;;;;;;;9.87;100.00;99352.44;5034612;28;20203;-66
2020/12/16 04:00:50;;;;;;;8.35;6.20;;;;;;;9.97;100.00;99357.19;5034374;28;20205;-66
2020/12/16 04:03:17;;;;;;;9.57;6.82;;;;;;;10.00;100.00;99358.81;5034838;28;20654;-67
2020/12/16 04:05:43;;;;;;;9.70;5.88;;;;;;;10.01;100.00;99360.53;5034451;28;20293;-67
2020/12/16 04:08:11;;;;;;;11.82;7.30;;;;;;;9.81;100.00;99354.53;5034325;28;20276;-67
2020/12/16 04:10:37;;;;;;;11.00;7.85;;;;;;;9.76;100.00;99356.59;5034103;28;20278;-67
2020/12/16 04:13:03;;;;;;;10.30;7.72;;;;;;;9.74;100.00;99361.19;5034676;28;20205;-66
2020/12/16 04:15:29;;;;;;;11.23;7.20;;;;;;;9.77;100.00;99355.66;5034363;28;20299;-66
2020/12/16 04:17:56;;;;;;;10.20;7.43;;;;;;;9.72;100.00;99360.44;5034076;28;20190;-67
2020/12/16 04:20:22;;;;;;;10.68;7.95;;;;;;;9.72;100.00;99355.06;5033444;28;20201;-68
2020/12/16 04:22:48;;;;;;;9.85;7.60;;;;;;;9.84;100.00;99352.63;5034777;28;20193;-67
2020/12/16 04:25:15;;;;;;;10.73;7.25;;;;;;;9.81;100.00;99353.63;5034341;28;20287;-67
2020/12/16 04:27:41;;;;;;;12.40;8.43;;;;;;;9.60;100.00;99345.88;5033874;28;20235;-66
2020/12/16 04:30:07;;;;;;;11.00;7.95;;;;;;;9.57;100.00;99347.91;5034446;28;21023;-67
2020/12/16 04:32:34;;;;;;;10.48;8.10;;;;;;;9.60;100.00;99350.41;5034150;28;20209;-67
2020/12/16 04:35:00;;;;;;;12.35;8.35;;;;;;;9.63;100.00;99336.75;5034348;28;20267;-67
2020/12/16 04:37:26;;;;;;;12.80;9.10;;;;;;;9.58;100.00;99344.25;5034291;28;20287;-67
2020/12/16 04:39:53;;;;;;;14.45;8.40;;;;;;;9.57;100.00;99342.53;5034204;28;20295;-66
2020/12/16 04:42:20;;;;;;;12.10;8.70;;;;;;;9.68;100.00;99331.13;5033638;28;20192;-67
2020/12/16 04:44:46;;;;;;;15.65;8.90;;;;;;;9.65;100.00;99342.06;5033836;28;20208;-67
2020/12/16 04:47:12;;;;;;;14.45;10.55;;;;;;;9.72;100.00;99332.66;5033292;28;20225;-67
2020/12/16 04:49:39;;;;;;;16.83;9.85;;;;;;;9.64;100.00;99325.06;5032993;28;20201;-67
2020/12/16 04:52:06;;;;;;;15.57;8.93;;;;;;;9.52;100.00;99339.22;5033941;28;20323;-67
2020/12/16 04:54:32;;;;;;;14.05;9.77;;;;;;;9.47;100.00;99333.25;5033375;28;20192;-67
2020/12/16 04:56:59;;;;;;;15.45;10.38;;;;;;;9.56;100.00;99330.03;5032578;28;20221;-66
2020/12/16 04:59:26;;;;;;;18.95;12.00;;;;;;;9.63;100.00;99333.22;5032955;28;20242;-67
2020/12/16 05:01:52;;;;;;;15.32;11.10;;;;;;;9.70;100.00;99324.72;5033430;28;20197;-67
2020/12/16 05:04:19;;;;;;;15.07;9.43;;;;;;;9.74;100.00;99330.75;5033667;28;20191;-67
2020/12/16 05:06:45;;;;;;;13.27;9.05;;;;;;;9.75;100.00;99330.69;5033078;28;20235;-67
2020/12/16 05:09:13;;;;;;;12.50;8.63;;;;;;;9.79;100.00;99337.63;5033072;28;20208;-67
2020/12/16 05:11:43;;;;;;;11.52;8.70;;;;;;;9.74;100.00;99336.16;5032896;28;20224;-67
2020/12/16 05:14:20;;;;;;;11.73;8.30;;;;;;;9.73;100.00;99329.91;5033233;28;20720;-67
2020/12/16 05:16:58;;;;;;;12.80;8.65;;;;;;;9.67;100.00;99334.78;5033292;28;20593;-67
2020/12/16 05:19:32;;;;;;;10.98;7.30;;;;;;;9.58;100.00;99333.50;5032392;28;20280;-67
2020/12/16 05:22:19;;;;;;;10.95;8.65;;;;;;;9.59;100.00;99337.94;5032329;28;20201;-67
2020/12/16 05:24:47;;;;;;;9.20;7.15;;;;;;;9.60;100.00;99340.50;5032780;28;20669;-67
2020/12/16 05:27:20;;;;;;;13.60;8.60;;;;;;;9.65;100.00;99336.69;5032781;28;20254;-66
2020/12/16 05:29:53;;;;;;;12.90;7.97;;;;;;;9.75;100.00;99343.28;5032584;28;20224;-67
2020/12/16 05:32:23;;;;;;;10.15;7.35;;;;;;;9.73;100.00;99347.88;5033081;28;20266;-67
2020/12/16 05:34:49;;;;;;;11.10;7.22;;;;;;;9.79;100.00;99350.19;5032862;28;20591;-67
2020/12/16 05:37:27;;;;;;;13.00;7.30;;;;;;;9.83;100.00;99349.03;5032810;28;20215;-67
2020/12/16 05:39:58;;;;;;;10.45;7.60;;;;;;;9.83;100.00;99351.72;5033041;28;20191;-67
2020/12/16 05:42:25;;;;;;;10.63;7.10;;;;;;;9.88;100.00;99355.03;5032670;28;20649;-67
2020/12/16 05:44:53;;;;;;;10.82;7.15;;;;;;;9.91;100.00;99360.22;5032564;28;20220;-67
2020/12/16 05:47:19;;;;;;;12.02;7.05;;;;;;;9.95;100.00;99368.97;5032144;28;20226;-67
2020/12/16 05:49:46;;;;;;;8.20;6.75;;;;;;;9.99;100.00;99366.03;5031953;28;20238;-67
2020/12/16 05:52:12;;;;;;;6.68;5.95;;;;;;;9.98;100.00;99371.50;5032460;28;20243;-67
2020/12/16 05:54:39;;;;;;;7.82;6.13;;;;;;;10.00;100.00;99366.88;5032269;28;20234;-67
2020/12/16 05:57:12;;;;;;;10.15;7.20;;;;;;;10.03;100.00;99367.56;5032548;28;20206;-67
2020/12/16 05:59:39;;;;;;;10.57;7.20;;;;;;;9.98;100.00;99371.50;5032164;28;20289;-66
2020/12/16 06:02:06;;;;;;;9.27;7.07;;;;;;;9.99;100.00;99373.22;5032614;28;20599;-68
2020/12/16 06:04:34;;;;;;;8.18;5.85;;;;;;;10.02;100.00;99368.53;5032380;28;20207;-67
2020/12/16 06:07:01;;;;;;;6.75;5.82;;;;;;;9.97;100.00;99370.63;5032371;28;20322;-67
2020/12/16 06:09:30;;;;;;;7.13;6.35;;;;;;;9.96;100.00;99374.25;5031331;28;20203;-67
2020/12/16 06:12:05;;;;;;;10.45;8.00;;;;;;;10.01;100.00;99376.66;5031902;28;20231;-67
2020/12/16 06:14:34;;;;;;;11.35;7.28;;;;;;;9.98;100.00;99374.19;5032302;28;20196;-68
2020/12/16 06:17:10;;;;;;;11.30;6.57;;;;;;;10.05;100.00;99383.59;5031413;28;20188;-67
2020/12/16 06:19:42;;;;;;;9.23;7.18;;;;;;;10.08;100.00;99383.41;5031727;28;20599;-67
2020/12/16 06:22:10;;;;;;;9.80;6.43;;;;;;;10.03;100.00;99388.22;5032511;28;20702;-67
2020/12/16 06:24:42;;;;;;;10.35;7.25;;;;;;;10.15;100.00;99400.94;5032109;28;20638;-66
2020/12/16 06:27:11;;;;;;;11.43;9.95;;;;;;;10.42;100.00;99394.88;5031755;28;20212;-67
2020/12/16 06:29:42;;;;;;;9.27;7.32;;;;;;;10.27;100.00;99399.34;5031753;28;20250;-67
2020/12/16 06:32:24;;;;;;;9.60;6.65;;;;;;;10.22;100.00;99402.31;5032008;28;20205;-67
2020/12/16 06:34:57;;;;;;;11.05;8.55;;;;;;;10.19;100.00;99405.16;5031513;28;20192;-67
2020/12/16 06:37:24;;;;;;;11.90;7.68;;;;;;;10.13;100.00;99401.97;5031558;28;20186;-66
2020/12/16 06:39:50;;;;;;;9.70;7.22;;;;;;;10.10;100.00;99399.47;5031829;28;20259;-68
2020/12/16 06:42:32;;;;;;;11.13;6.97;;;;;;;10.01;100.00;99403.56;5031246;28;20296;-67
2020/12/16 06:45:14;;;;;;;11.27;8.23;;;;;;;9.94;100.00;99402.19;5031390;28;20234;-67
2020/12/16 06:47:40;;;;;;;10.20;7.50;;;;;;;9.93;100.00;99403.19;5029191;28;20259;-68
2020/12/16 06:50:18;;;;;;;11.77;8.55;;;;;;;9.92;100.00;99404.97;5030335;28;20191;-68
2020/12/16 06:52:45;;;;;;;12.95;8.45;;;;;;;9.93;100.00;99395.97;5031325;28;20675;-67
2020/12/16 06:55:12;;;;;;;10.88;7.55;;;;;;;10.00;100.00;99404.53;5031215;28;20212;-68
2020/12/16 06:57:47;;;;;;;17.25;9.73;;;;;;;10.07;100.00;99396.97;5031545;28;20254;-67
2020/12/16 07:00:22;;;;;;;11.82;9.18;;;;;;;10.02;100.00;99397.25;5030876;28;20716;-67
2020/12/16 07:02:49;;;;;;;13.45;9.05;;;;;;;9.88;100.00;99403.44;5031445;28;20195;-67
2020/12/16 07:05:39;;;;;;;19.95;11.20;;;;;;;10.06;100.00;99408.69;5030928;28;20203;-67
2020/12/16 07:08:07;;;;;;;12.43;8.65;;;;;;;9.99;100.00;99416.25;5025476;28;20640;-67
2020/12/16 07:10:49;;;;;;;14.55;9.88;;;;;;;10.03;100.00;99407.91;5031684;28;20207;-67
2020/12/16 07:13:22;;;;;;;12.15;8.80;;;;;;;10.17;100.00;99407.06;5033987;28;20275;-67
2020/12/16 07:15:51;;;;;;;10.77;8.63;;;;;;;10.16;100.00;99405.34;5051387;28;20202;-67
2020/12/16 07:18:28;;;;;;;11.20;8.95;;;;;;;10.15;100.00;99406.34;5039851;28;20271;-67
2020/12/16 07:21:17;;;;;;;20.02;10.20;;;;;;;10.18;100.00;99410.66;5032336;28;20271;-67
2020/12/16 07:23:51;;;;;;;11.15;8.70;;;;;;;10.20;100.00;99406.91;5035543;28;20951;-67
2020/12/16 07:26:19;;;;;;;11.85;8.90;;;;;;;10.20;100.00;99400.69;5035212;28;20255;-66
2020/12/16 07:28:46;;;;;;;14.35;10.68;;;;;;;10.19;100.00;99405.16;5035129;28;20208;-68
2020/12/16 07:31:13;;;;;;;13.57;11.07;;;;;;;10.33;100.00;99409.75;5034952;28;20548;-67
2020/12/16 07:33:39;;;;;;;13.45;10.15;;;;;;;10.32;100.00;99410.72;5035127;28;20185;-67
2020/12/16 07:36:06;;;;;;;13.10;10.07;;;;;;;10.31;100.00;99409.00;5034851;28;20529;-67
2020/12/16 07:38:32;;;;;;;13.45;9.98;;;;;;;10.23;100.00;99413.94;5034458;28;20213;-66
2020/12/16 07:40:59;;;;;;;11.50;9.75;;;;;;;10.12;100.00;99411.88;5034978;28;20189;-68
2020/12/16 07:43:26;;;;;;;12.88;9.68;;;;;;;10.19;100.00;99412.38;5034315;28;20196;-68
2020/12/16 07:46:08;;;;;;;14.65;10.35;;;;;;;10.10;100.00;99413.78;5034698;28;20240;-66
2020/12/16 07:48:36;;;;;;;11.73;9.88;;;;;;;10.19;100.00;99410.53;5034057;28;20209;-67
2020/12/16 07:51:04;;;;;;;12.65;10.35;;;;;;;10.24;100.00;99410.28;5034522;28;20204;-67
2020/12/16 07:53:32;;;;;;;14.73;10.45;;;;;;;10.18;100.00;99407.97;5033735;28;20236;-67
2020/12/16 07:56:01;;;;;;;10.57;9.35;;;;;;;10.38;100.00;99406.81;5034674;28;20632;-68
2020/12/16 07:58:29;;;;;;;13.60;9.93;;;;;;;10.28;100.00;99413.66;5034373;28;20196;-68
2020/12/16 08:01:06;;;;;;;15.90;11.45;;;;;;;10.15;100.00;99410.81;5034385;28;20182;-67
2020/12/16 08:03:34;;;;;;;12.90;10.48;;;;;;;10.05;100.00;99417.72;5033343;28;20206;-66
2020/12/16 08:06:01;;;;;;;15.68;12.52;;;;;;;10.27;100.00;99417.31;5034476;28;20216;-66
2020/12/16 08:08:28;;;;;;;15.98;13.13;;;;;;;10.23;100.00;99422.00;5034467;28;20218;-67
2020/12/16 08:10:54;;;;;;;14.05;11.65;;;;;;;10.34;100.00;99426.78;5034365;28;20605;-67
2020/12/16 08:13:23;;;;;;;13.40;11.60;;;;;;;10.39;100.00;99425.53;5034091;28;20291;-67
2020/12/16 08:15:50;;;;;;;16.02;12.50;;;;;;;10.30;100.00;99417.16;5034044;28;20214;-67
2020/12/16 08:18:32;;;;;;;13.60;11.40;;;;;;;10.34;100.00;99424.97;5033969;28;20203;-68
2020/12/16 08:20:58;;;;;;;13.15;10.93;;;;;;;10.36;100.00;99424.88;4992776;28;20238;-67
2020/12/16 08:23:25;;;;;;;12.27;10.57;;;;;;;10.44;98.81;99415.34;4988298;28;20288;-66
2020/12/16 08:25:51;;;;;;;14.23;10.85;;;;;;;10.37;99.39;99418.53;4984596;28;20207;-67
2020/12/16 08:28:27;;;;;;;12.40;10.48;;;;;;;10.37;100.00;99418.53;4992227;28;20229;-67
2020/12/16 08:30:58;;;;;;;11.35;10.07;;;;;;;10.35;100.00;99418.59;4992486;28;20683;-67
2020/12/16 08:33:27;;;;;;;12.65;10.43;;;;;;;10.54;98.88;99428.28;4992295;28;20291;-67
2020/12/16 08:35:57;;;;;;;13.20;11.70;;;;;;;10.54;99.61;99434.53;4974444;28;20200;-68
2020/12/16 08:38:27;;;;;;;14.00;11.40;;;;;;;10.50;99.26;99437.50;4973095;28;20217;-67
2020/12/16 08:40:55;;;;;;;15.90;11.57;;;;;;;10.58;99.61;99428.00;4972743;28;20208;-67
2020/12/16 08:43:24;;;;;;;17.40;13.82;;;;;;;10.66;99.45;99432.06;4972977;28;20589;-67
2020/12/16 08:46:07;;;;;;;12.48;11.18;;;;;;;10.62;98.37;99425.97;4972446;28;20211;-68
2020/12/16 08:48:45;;;;;;;13.55;11.07;;;;;;;10.71;98.10;99429.94;4971036;28;20207;-67
2020/12/16 08:51:15;;;;;;;15.85;12.15;;;;;;;10.74;98.20;99427.03;4974588;28;20562;-67
2020/12/16 08:53:56;;;;;;;14.73;11.20;;;;;;;10.60;98.46;99430.59;4974219;28;20215;-68
2020/12/16 08:56:28;;;;;;;15.23;12.23;;;;;;;10.57;99.35;99428.09;4972124;28;20205;-68
2020/12/16 08:59:18;;;;;;;19.23;13.57;;;;;;;10.48;100.00;99418.75;5007112;28;20239;-67
2020/12/16 09:01:47;;;;;;;13.13;11.73;;;;;;;10.48;100.00;99417.88;5024806;28;20200;-67
2020/12/16 09:04:23;;;;;;;15.73;11.43;;;;;;;10.27;100.00;99418.19;5033944;28;20606;-68
2020/12/16 09:06:59;;;;;;;15.85;14.23;;;;;;;10.47;100.00;99430.47;5032848;28;20255;-67
2020/12/16 09:09:26;;;;;;;14.63;11.82;;;;;;;10.60;100.00;99417.13;5050625;28;20198;-67
2020/12/16 09:11:52;;;;;;;16.08;12.95;;;;;;;10.68;100.00;99414.84;5053189;28;20308;-68
2020/12/16 09:14:20;;;;;;;16.00;12.77;;;;;;;10.92;99.77;99416.97;5047690;28;20200;-68
2020/12/16 09:16:47;;;;;;;13.40;10.55;;;;;;;10.97;97.21;99417.56;5033008;28;20218;-67
2020/12/16 09:19:19;;;;;;;13.30;10.57;;;;;;;10.92;98.27;99425.94;5032998;28;20206;-67
2020/12/16 09:21:46;;;;;;;12.38;10.60;;;;;;;11.09;97.88;99429.38;5045563;28;20209;-66
2020/12/16 09:24:13;;;;;;;13.13;10.77;;;;;;;11.11;96.50;99422.06;5032960;28;20260;-67
2020/12/16 09:26:42;;;;;;;11.98;10.70;;;;;;;10.97;96.69;99431.03;5032488;28;20235;-67
2020/12/16 09:29:30;;;;;;;11.57;9.50;;;;;;;11.01;96.25;99419.06;5032846;28;20228;-67
2020/12/16 09:32:08;;;;;;;11.35;10.07;;;;;;;11.18;96.52;99424.28;4972068;28;20208;-67
2020/12/16 09:34:39;;;;;;;13.00;11.05;;;;;;;11.23;95.42;99426.66;4971505;28;20199;-67
2020/12/16 09:37:14;;;;;;;18.52;13.80;;;;;;;11.39;94.30;99432.81;4971623;28;20200;-67
2020/12/16 09:39:41;;;;;;;11.65;10.45;;;;;;;11.59;93.67;99431.53;4971206;28;20208;-67
2020/12/16 09:42:12;;;;;;;11.48;10.30;;;;;;;11.75;92.01;99428.69;4971369;28;20216;-67
2020/12/16 09:44:39;;;;;;;12.32;9.85;;;;;;;11.64;91.86;99425.84;4970694;28;20533;-67
2020/12/16 09:47:15;;;;;;;14.43;10.60;;;;;;;11.72;91.36;99433.44;4971320;28;20696;-66
2020/12/16 09:49:42;;;;;;;12.70;9.75;;;;;;;11.80;90.18;99426.59;4971340;28;20203;-66
2020/12/16 09:52:31;;;;;;;10.43;9.25;;;;;;;11.84;90.16;99433.47;4971720;28;20228;-66
2020/12/16 09:54:58;;;;;;;10.35;8.88;;;;;;;11.76;90.48;99419.66;4952084;29;20283;-68
2020/12/16 09:57:25;;;;;;;12.02;9.57;;;;;;;11.83;89.59;99429.06;4967682;28;20200;-67
2020/12/16 09:59:52;;;;;;;10.38;8.98;;;;;;;11.65;90.03;99420.34;4971429;28;20236;-67
2020/12/16 10:02:19;;;;;;;11.98;9.73;;;;;;;11.65;91.64;99416.78;4971492;28;20200;-68
2020/12/16 10:04:46;;;;;;;11.32;10.13;;;;;;;11.63;91.90;99416.03;4971264;28;20634;-66
2020/12/16 10:07:12;;;;;;;11.38;9.50;;;;;;;11.76;90.65;99406.16;4971035;28;20755;-68
2020/12/16 10:09:40;;;;;;;12.10;9.85;;;;;;;11.73;90.16;99409.03;5016892;28;20201;-68
2020/12/16 10:12:07;;;;;;;10.60;8.98;;;;;;;11.64;90.22;99404.25;5031568;28;20659;-67
2020/12/16 10:14:36;;;;;;;12.82;10.00;;;;;;;11.75;90.34;99406.25;5032221;28;20255;-68
2020/12/16 10:17:03;;;;;;;17.25;13.38;;;;;;;11.91;90.56;99406.13;5032135;28;20217;-67
2020/12/16 10:19:30;;;;;;;14.63;9.80;;;;;;;12.08;89.81;99395.09;5032116;28;20312;-66
2020/12/16 10:21:57;;;;;;;9.82;8.55;;;;;;;12.02;89.56;99390.09;5031711;28;20293;-68
2020/12/16 10:24:23;;;;;;;12.32;10.90;;;;;;;11.97;90.13;99392.25;5031871;28;20636;-68
2020/12/16 10:26:50;;;;;;;12.77;11.32;;;;;;;12.07;89.16;99402.31;5031834;28;20264;-67
2020/12/16 10:29:17;;;;;;;11.80;10.60;;;;;;;11.83;90.70;99396.69;5032007;28;20238;-67
2020/12/16 10:31:49;;;;;;;13.48;9.75;;;;;;;11.86;90.10;99382.13;5031466;28;20558;-67
2020/12/16 10:34:15;;;;;;;10.48;9.05;;;;;;;11.81;90.28;99378.88;5031108;28;20185;-67
2020/12/16 10:36:43;;;;;;;11.10;9.65;;;;;;;11.93;89.91;99374.53;5031890;28;20201;-67
2020/12/16 10:39:09;;;;;;;10.57;9.55;;;;;;;12.00;88.92;99373.13;5031608;28;20198;-67
2020/12/16 10:41:36;;;;;;;10.57;9.52;;;;;;;12.18;89.01;99374.59;5031586;28;20198;-67
2020/12/16 10:44:03;;;;;;;18.30;14.27;;;;;;;12.48;88.17;99382.44;5031403;28;20284;-67
2020/12/16 10:46:29;;;;;;;11.07;9.98;;;;;;;12.47;86.92;99371.72;5031473;28;20235;-67
2020/12/16 10:48:56;;;;;;;11.43;9.88;;;;;;;12.47;86.41;99364.47;5042001;28;20208;-67
2020/12/16 10:51:28;;;;;;;11.38;9.88;;;;;;;12.45;86.41;99369.13;5052036;28;20259;-67
2020/12/16 10:53:55;;;;;;;11.90;9.10;;;;;;;12.38;87.16;99372.34;5035316;28;20194;-68
2020/12/16 10:56:22;;;;;;;12.93;10.68;;;;;;;12.50;87.52;99374.19;5035542;28;20205;-68
2020/12/16 10:58:50;;;;;;;12.55;10.35;;;;;;;12.51;87.20;99379.50;5035516;28;20233;-67
2020/12/16 11:01:16;;;;;;;11.43;9.32;;;;;;;12.54;85.86;99381.13;5035203;28;20694;-67
2020/12/16 11:03:43;;;;;;;10.70;9.02;;;;;;;12.64;84.95;99378.63;5036043;28;20213;-68
2020/12/16 11:06:12;;;;;;;10.13;8.70;;;;;;;12.83;84.17;99378.22;5035271;28;20237;-68
2020/12/16 11:08:39;;;;;;;16.42;7.97;;;;;;;12.86;83.29;99386.09;5035233;28;20186;-68
2020/12/16 11:11:05;;;;;;;9.07;7.63;;;;;;;12.97;83.12;99375.38;5035599;28;20660;-67
2020/12/16 11:13:32;;;;;;;8.18;7.13;;;;;;;12.83;82.12;99376.38;5035333;28;20641;-67
2020/12/16 11:15:59;;;;;;;11.45;8.88;;;;;;;12.84;82.84;99377.22;5035468;28;20598;-67
2020/12/16 11:18:25;;;;;;;11.02;8.77;;;;;;;12.83;82.12;99378.22;5035166;28;20188;-67
2020/12/16 11:20:52;;;;;;;8.43;7.55;;;;;;;12.92;82.83;99377.56;5035422;28;20201;-68
2020/12/16 11:23:18;;;;;;;9.25;8.25;;;;;;;12.75;83.25;99386.84;5035001;28;20201;-67
2020/12/16 11:25:45;;;;;;;9.18;7.20;;;;;;;12.51;83.71;99378.63;5034360;28;20220;-68
2020/12/16 11:28:11;;;;;;;7.85;7.05;;;;;;;12.50;84.37;99379.59;5034631;28;20584;-67